createdAt,value
2019-06-07T00:02:10.666Z,6.70
2019-06-07T00:04:21.678Z,6.63
2019-06-07T00:06:32.567Z,6.80
2019-06-07T00:08:43.498Z,6.77
2019-06-07T00:10:54.366Z,7.37
2019-06-07T00:13:05.293Z,7.60
2019-06-07T00:15:21.908Z,5.90
2019-06-07T00:17:29.093Z,7.07
2019-06-07T00:19:40.024Z,7.83
2019-06-07T00:22:15.889Z,6.53
2019-06-07T00:24:03.830Z,6.83
2019-06-07T00:26:18.163Z,5.80
2019-06-07T00:28:27.413Z,6.30
2019-06-07T00:30:50.528Z,6.33
2019-06-07T00:32:51.418Z,6.53
2019-06-07T00:35:06.889Z,7.13
2019-06-07T00:37:20.718Z,6.83
2019-06-07T00:39:32.388Z,6.43
2019-06-07T00:41:43.337Z,7.10
2019-06-07T00:43:54.274Z,6.40
2019-06-07T00:46:05.104Z,6.40
2019-06-07T00:48:26.765Z,6.50
2019-06-07T00:50:28.735Z,6.50
2019-06-07T00:53:14.103Z,6.40
2019-06-07T00:54:52.411Z,6.00
2019-06-07T00:57:03.474Z,5.83
2019-06-07T00:59:16.875Z,6.07
2019-06-07T01:01:27.161Z,7.93
2019-06-07T01:03:37.985Z,9.87
2019-06-07T01:05:48.810Z,9.13
2019-06-07T01:08:01.574Z,10.57
2019-06-07T01:10:13.838Z,9.43
2019-06-07T01:12:27.020Z,8.37
2019-06-07T01:14:38.618Z,7.07
2019-06-07T01:16:57.247Z,7.83
2019-06-07T01:19:02.469Z,9.43
2019-06-07T01:21:15.813Z,11.07
2019-06-07T01:25:38.836Z,10.00
2019-06-07T01:27:49.694Z,10.50
2019-06-07T01:30:00.637Z,10.00
2019-06-07T01:32:11.458Z,9.10
2019-06-07T01:34:25.690Z,8.00
2019-06-07T01:36:35.116Z,8.77
2019-06-07T01:38:45.955Z,9.67
2019-06-07T01:40:56.770Z,9.87
2019-06-07T01:43:07.606Z,9.87
2019-06-07T01:45:19.542Z,9.97
2019-06-07T01:47:32.030Z,9.73
2019-06-07T01:49:43.363Z,8.47
2019-06-07T01:51:54.279Z,9.50
2019-06-07T01:56:18.902Z,9.20
2019-06-07T01:58:30.704Z,10.10
2019-06-07T02:00:41.584Z,9.20
2019-06-07T02:02:52.452Z,8.97
2019-06-07T02:05:04.370Z,9.03
2019-06-07T02:07:15.195Z,9.80
2019-06-07T02:09:29.862Z,8.33
2019-06-07T02:11:38.897Z,9.57
2019-06-07T02:13:49.729Z,9.57
2019-06-07T02:16:00.551Z,9.60
2019-06-07T02:18:11.384Z,9.30
2019-06-07T02:20:23.829Z,9.60
2019-06-07T02:22:35.574Z,9.30
2019-06-07T02:24:46.404Z,9.97
2019-06-07T02:26:57.224Z,9.87
2019-06-07T02:29:08.079Z,9.73
2019-06-07T02:31:18.900Z,9.83
2019-06-07T02:33:35.134Z,9.93
2019-06-07T02:35:42.469Z,9.20
2019-06-07T02:37:53.296Z,10.33
2019-06-07T02:40:05.940Z,9.70
2019-06-07T02:42:16.765Z,9.57
2019-06-07T02:44:31.821Z,9.50
2019-06-07T02:46:49.253Z,9.60
2019-06-07T02:48:54.061Z,9.37
2019-06-07T02:51:04.878Z,10.13
2019-06-07T02:53:15.698Z,10.40
2019-06-07T02:55:29.576Z,9.10
2019-06-07T02:57:41.560Z,9.73
2019-06-07T03:00:06.738Z,9.90
2019-06-07T03:02:05.015Z,9.23
2019-06-07T03:04:17.174Z,9.93
2019-06-07T03:06:31.850Z,10.03
2019-06-07T03:08:44.039Z,9.60
2019-06-07T03:10:56.871Z,10.83
2019-06-07T03:13:08.818Z,9.97
2019-06-07T03:15:32.835Z,10.43
2019-06-07T03:17:40.531Z,10.03
2019-06-07T03:19:52.936Z,10.47
2019-06-07T03:22:03.958Z,9.93
2019-06-07T03:24:14.834Z,9.87
2019-06-07T03:26:27.587Z,10.03
2019-06-07T03:28:39.555Z,11.03
2019-06-07T03:31:01.431Z,10.47
2019-06-07T03:33:03.370Z,10.50
2019-06-07T03:35:14.216Z,8.93
2019-06-07T03:37:25.024Z,9.93
2019-06-07T03:39:37.008Z,9.30
2019-06-07T03:42:05.115Z,10.43
2019-06-07T03:44:01.318Z,10.30
2019-06-07T03:46:12.234Z,8.80
2019-06-07T03:48:23.049Z,10.00
2019-06-07T03:50:36.663Z,10.10
2019-06-07T03:52:47.014Z,10.60
2019-06-07T03:54:57.842Z,10.40
2019-06-07T03:57:08.698Z,10.90
2019-06-07T03:59:19.517Z,9.43
2019-06-07T04:01:32.218Z,10.37
2019-06-07T04:03:51.100Z,10.00
2019-06-07T04:05:55.824Z,9.30
2019-06-07T04:08:06.675Z,8.87
2019-06-07T04:10:17.501Z,10.43
2019-06-07T04:12:28.573Z,9.60
2019-06-07T04:14:42.524Z,9.97
2019-06-07T04:16:52.591Z,9.57
2019-06-07T04:19:03.567Z,8.83
2019-06-07T04:21:14.400Z,9.17
2019-06-07T04:23:28.244Z,10.07
2019-06-07T04:25:42.241Z,9.03
2019-06-07T04:27:51.196Z,8.83
2019-06-07T04:30:08.239Z,9.20
2019-06-07T04:32:19.445Z,9.57
2019-06-07T04:34:34.912Z,10.20
2019-06-07T04:36:56.668Z,9.50
2019-06-07T04:38:57.337Z,10.40
2019-06-07T04:41:08.267Z,10.10
2019-06-07T04:43:19.138Z,9.37
2019-06-07T04:45:38.354Z,9.57
2019-06-07T04:47:44.872Z,8.17
2019-06-07T04:49:56.436Z,9.50
2019-06-07T04:52:07.760Z,8.90
2019-06-07T04:54:18.598Z,9.47
2019-06-07T04:56:30.064Z,9.33
2019-06-07T04:58:41.594Z,8.80
2019-06-07T05:00:58.949Z,8.37
2019-06-07T05:03:05.589Z,9.63
2019-06-07T05:05:16.417Z,9.27
2019-06-07T05:07:27.269Z,8.73
2019-06-07T05:09:42.555Z,9.80
2019-06-07T05:11:51.053Z,8.70
2019-06-07T05:14:01.977Z,8.87
2019-06-07T05:16:12.844Z,9.07
2019-06-07T05:18:23.701Z,9.20
2019-06-07T05:20:36.078Z,8.40
2019-06-07T05:22:47.308Z,8.30
2019-06-07T05:24:58.137Z,8.00
2019-06-07T05:27:09.052Z,8.97
2019-06-07T05:29:19.913Z,8.33
2019-06-07T05:31:31.847Z,7.80
2019-06-07T05:33:43.787Z,8.13
2019-06-07T05:35:54.772Z,7.37
2019-06-07T05:38:06.380Z,7.30
2019-06-07T05:40:21.376Z,7.00
2019-06-07T05:42:34.568Z,7.60
2019-06-07T05:44:47.288Z,6.70
2019-06-07T05:46:58.119Z,7.10
2019-06-07T05:49:08.975Z,6.70
2019-06-07T05:51:19.924Z,6.70
2019-06-07T05:53:31.672Z,6.47
2019-06-07T05:55:47.123Z,6.60
2019-06-07T05:57:56.255Z,6.13
2019-06-07T06:00:07.325Z,5.90
2019-06-07T06:02:25.326Z,6.50
2019-06-07T06:04:30.992Z,6.27
2019-06-07T06:06:44.757Z,5.83
2019-06-07T06:09:12.944Z,6.13
2019-06-07T06:11:07.396Z,5.67
2019-06-07T06:13:18.484Z,6.87
2019-06-07T06:15:42.261Z,5.60
2019-06-07T06:17:46.097Z,6.23
2019-06-07T06:19:54.921Z,5.50
2019-06-07T06:22:06.831Z,5.20
2019-06-07T06:24:17.691Z,5.70
2019-06-07T06:26:28.865Z,5.23
2019-06-07T06:28:42.704Z,5.03
2019-06-07T06:30:54.404Z,5.13
2019-06-07T06:33:05.298Z,4.53
2019-06-07T06:35:16.345Z,4.03
2019-06-07T06:37:27.376Z,4.60
2019-06-07T06:39:39.576Z,4.23
2019-06-07T06:42:01.651Z,4.43
2019-06-07T06:44:03.907Z,4.80
2019-06-07T06:46:31.860Z,4.97
2019-06-07T06:48:27.672Z,4.63
2019-06-07T06:50:38.755Z,4.60
2019-06-07T06:52:54.089Z,4.83
2019-06-07T06:55:05.831Z,5.10
2019-06-07T06:57:19.979Z,5.00
2019-06-07T06:59:39.292Z,4.73
2019-06-07T07:01:42.617Z,5.13
2019-06-07T07:04:10.650Z,4.70
2019-06-07T07:06:25.423Z,4.70
2019-06-07T07:08:19.265Z,4.70
2019-06-07T07:10:45.894Z,5.50
2019-06-07T07:12:57.311Z,4.80
2019-06-07T07:15:16.219Z,4.87
2019-06-07T07:17:48.019Z,4.57
2019-06-07T07:19:39.882Z,4.87
2019-06-07T07:21:54.823Z,5.20
2019-06-07T07:24:20.463Z,4.47
2019-06-07T07:26:16.297Z,4.60
2019-06-07T07:28:27.310Z,4.73
2019-06-07T07:30:54.470Z,4.70
2019-06-07T07:33:04.557Z,4.70
2019-06-07T07:35:15.562Z,5.03
2019-06-07T07:37:26.450Z,4.53
2019-06-07T07:39:37.291Z,4.50
2019-06-07T07:42:12.352Z,5.00
2019-06-07T07:44:06.759Z,4.37
2019-06-07T07:46:29.281Z,4.93
2019-06-07T07:48:26.709Z,4.97
2019-06-07T07:50:37.613Z,3.90
2019-06-07T07:52:53.466Z,4.00
2019-06-07T07:55:01.878Z,4.50
2019-06-07T07:57:12.785Z,4.00
2019-06-07T07:59:41.302Z,4.10
2019-06-07T08:01:36.604Z,4.10
2019-06-07T08:03:48.167Z,4.17
2019-06-07T08:06:00.296Z,4.13
2019-06-07T08:08:11.263Z,3.70
2019-06-07T08:10:22.098Z,3.57
2019-06-07T08:12:55.702Z,3.70
2019-06-07T08:14:47.694Z,3.70
2019-06-07T08:16:59.310Z,3.80
2019-06-07T08:19:10.412Z,3.63
2019-06-07T08:21:26.405Z,2.90
2019-06-07T08:23:36.112Z,3.67
2019-06-07T08:25:46.968Z,4.20
2019-06-07T08:27:59.129Z,3.63
2019-06-07T08:30:46.717Z,3.37
2019-06-07T08:32:24.506Z,3.40
2019-06-07T08:34:35.359Z,3.37
2019-06-07T08:36:46.186Z,3.10
2019-06-07T08:39:03.580Z,3.30
2019-06-07T08:41:12.335Z,3.40
2019-06-07T08:43:22.644Z,2.83
2019-06-07T08:45:33.564Z,3.30
2019-06-07T08:47:44.412Z,2.83
2019-06-07T08:49:59.297Z,2.90
2019-06-07T08:52:12.173Z,3.13
2019-06-07T08:54:23.174Z,3.07
2019-06-07T08:56:33.894Z,3.50
2019-06-07T08:58:44.809Z,3.70
2019-06-07T09:00:59.387Z,3.33
2019-06-07T09:03:08.347Z,3.50
2019-06-07T09:05:19.391Z,3.80
2019-06-07T09:07:30.332Z,3.00
2019-06-07T09:09:41.265Z,2.93
2019-06-07T09:11:52.444Z,2.80
2019-06-07T09:14:09.032Z,2.17
2019-06-07T09:16:17.872Z,3.07
2019-06-07T09:18:41.848Z,2.97
2019-06-07T09:20:46.562Z,3.10
2019-06-07T09:23:06.197Z,2.60
2019-06-07T09:25:20.729Z,2.83
2019-06-07T09:27:25.145Z,2.67
2019-06-07T09:29:36.578Z,3.37
2019-06-07T09:31:53.132Z,3.00
2019-06-07T09:34:07.965Z,2.87
2019-06-07T09:36:13.689Z,2.47
2019-06-07T09:38:26.451Z,3.40
2019-06-07T09:40:37.564Z,2.90
2019-06-07T09:42:48.367Z,2.73
2019-06-07T09:45:02.145Z,2.80
2019-06-07T09:47:30.422Z,3.10
2019-06-07T09:49:32.000Z,3.40
2019-06-07T09:51:37.507Z,3.93
2019-06-07T09:53:48.390Z,3.10
2019-06-07T09:56:03.550Z,3.00
2019-06-07T10:00:42.604Z,3.80
2019-06-07T10:02:37.957Z,3.90
2019-06-07T10:04:48.796Z,4.10
2019-06-07T10:07:10.581Z,3.73
2019-06-07T10:11:25.139Z,4.00
2019-06-07T10:13:36.011Z,3.63
2019-06-07T10:15:46.979Z,3.33
2019-06-07T10:17:58.600Z,3.33
2019-06-07T10:20:09.966Z,3.60
2019-06-07T10:22:23.185Z,3.83
2019-06-07T10:24:34.016Z,3.60
2019-06-07T10:26:44.846Z,2.70
2019-06-07T10:28:55.658Z,3.37
2019-06-07T10:31:08.911Z,3.40
2019-06-07T10:33:19.262Z,3.80
2019-06-07T10:35:30.098Z,3.27
2019-06-07T10:37:40.931Z,3.60
2019-06-07T10:39:51.771Z,2.93
2019-06-07T10:42:04.621Z,3.30
2019-06-07T10:44:15.990Z,3.43
2019-06-07T10:46:26.829Z,3.67
2019-06-07T10:48:37.973Z,3.43
2019-06-07T10:50:48.923Z,4.17
2019-06-07T10:52:59.749Z,4.00
2019-06-07T10:55:10.789Z,3.80
2019-06-07T10:57:21.745Z,3.67
2019-06-07T10:59:32.601Z,3.70
2019-06-07T11:01:43.569Z,3.70
2019-06-07T11:03:54.408Z,3.90
2019-06-07T11:06:05.748Z,3.30
2019-06-07T11:08:16.657Z,3.23
2019-06-07T11:10:27.500Z,3.77
2019-06-07T11:12:38.336Z,4.20
2019-06-07T11:14:49.199Z,3.63
2019-06-07T11:17:00.031Z,3.20
2019-06-07T11:19:15.344Z,3.87
2019-06-07T11:21:23.616Z,4.20
2019-06-07T11:23:34.430Z,3.73
2019-06-07T11:25:45.268Z,4.90
2019-06-07T11:27:56.121Z,3.90
2019-06-07T11:30:08.314Z,4.40
2019-06-07T11:32:19.407Z,3.67
2019-06-07T11:34:30.247Z,4.50
2019-06-07T11:36:41.074Z,3.80
2019-06-07T11:38:51.954Z,3.77
2019-06-07T11:41:03.007Z,4.40
2019-06-07T11:43:14.966Z,4.07
2019-06-07T11:45:26.008Z,3.87
2019-06-07T11:47:36.862Z,4.30
2019-06-07T11:49:47.862Z,4.10
2019-06-07T11:51:58.758Z,4.17
2019-06-07T11:54:09.796Z,4.17
2019-06-07T11:56:20.787Z,4.03
2019-06-07T11:58:31.632Z,4.60
2019-06-07T12:00:42.485Z,4.13
2019-06-07T12:02:53.553Z,4.20
2019-06-07T12:05:08.095Z,4.23
2019-06-07T12:07:19.937Z,4.50
2019-06-07T12:09:30.972Z,4.00
2019-06-07T12:11:41.909Z,4.20
2019-06-07T12:13:54.634Z,4.07
2019-06-07T12:16:05.521Z,4.20
2019-06-07T12:18:17.332Z,4.00
2019-06-07T12:20:28.201Z,3.97
2019-06-07T12:22:39.029Z,4.25
2019-06-07T12:24:49.924Z,4.10
2019-06-07T12:27:00.731Z,3.80
2019-06-07T12:29:12.803Z,4.10
2019-06-07T12:31:23.887Z,3.60
2019-06-07T12:33:34.982Z,3.73
2019-06-07T12:35:45.887Z,4.10
2019-06-07T12:37:56.731Z,3.90
2019-06-07T12:40:08.624Z,4.57
2019-06-07T12:42:20.613Z,3.83
2019-06-07T12:44:31.597Z,3.30
2019-06-07T12:46:42.540Z,4.00
2019-06-07T12:48:53.419Z,3.70
2019-06-07T12:51:04.396Z,4.20
2019-06-07T12:53:15.705Z,3.92
2019-06-07T12:55:26.626Z,3.87
2019-06-07T12:57:37.482Z,4.00
2019-06-07T12:59:48.308Z,4.20
2019-06-07T13:02:02.161Z,4.27
2019-06-07T13:04:11.953Z,3.80
2019-06-07T13:06:23.692Z,3.60
2019-06-07T13:08:34.904Z,3.40
2019-06-07T13:10:45.791Z,3.90
2019-06-07T13:12:56.948Z,4.00
2019-06-07T13:15:08.914Z,3.80
2019-06-07T13:17:20.370Z,3.63
2019-06-07T13:19:31.301Z,3.73
2019-06-07T13:21:42.167Z,3.83
2019-06-07T13:23:53.021Z,3.70
2019-06-07T13:26:03.845Z,4.37
2019-06-07T13:28:14.697Z,3.70
2019-06-07T13:30:25.686Z,3.43
2019-06-07T13:32:37.300Z,3.90
2019-06-07T13:34:48.174Z,3.73
2019-06-07T13:36:59.083Z,3.60
2019-06-07T13:39:09.881Z,3.90
2019-06-07T13:41:33.688Z,3.70
2019-06-07T13:43:33.602Z,3.37
2019-06-07T13:45:44.428Z,3.73
2019-06-07T13:47:55.276Z,3.67
2019-06-07T13:50:06.906Z,3.90
2019-06-07T13:52:17.800Z,3.75
2019-06-07T13:54:29.699Z,3.83
2019-06-07T13:57:00.696Z,3.63
2019-06-07T13:58:53.597Z,3.60
2019-06-07T14:01:04.430Z,3.33
2019-06-07T14:03:15.267Z,3.20
2019-06-07T14:05:27.284Z,3.50
2019-06-07T14:07:38.235Z,3.22
2019-06-07T14:09:49.094Z,3.30
2019-06-07T14:11:59.942Z,3.20
2019-06-07T14:14:12.740Z,3.40
2019-06-07T14:16:24.289Z,2.80
2019-06-07T14:18:35.226Z,3.20
2019-06-07T14:20:46.058Z,3.17
2019-06-07T14:22:56.891Z,3.47
2019-06-07T14:25:08.450Z,3.42
2019-06-07T14:27:19.288Z,3.37
2019-06-07T14:29:30.204Z,2.90
2019-06-07T14:31:41.023Z,3.22
2019-06-07T14:33:51.869Z,3.15
2019-06-07T14:36:02.993Z,3.45
2019-06-07T14:38:13.824Z,3.17
2019-06-07T14:40:25.422Z,3.17
2019-06-07T14:42:36.516Z,4.05
2019-06-07T14:44:47.471Z,3.50
2019-06-07T14:46:58.609Z,3.00
2019-06-07T14:49:11.377Z,3.33
2019-06-07T14:51:22.200Z,3.35
2019-06-07T14:53:33.312Z,3.15
2019-06-07T14:55:44.168Z,3.50
2019-06-07T14:57:55.021Z,3.22
2019-06-07T15:00:12.170Z,3.15
2019-06-07T15:02:23.215Z,3.40
2019-06-07T15:04:36.948Z,3.08
2019-06-07T15:06:47.913Z,3.40
2019-06-07T15:08:58.865Z,3.20
2019-06-07T15:11:09.740Z,3.45
2019-06-07T15:13:20.561Z,3.00
2019-06-07T15:15:32.754Z,3.60
2019-06-07T15:17:43.838Z,3.50
2019-06-07T15:19:55.030Z,3.35
2019-06-07T15:22:05.822Z,3.33
2019-06-07T15:24:16.658Z,3.15
2019-06-07T15:26:28.366Z,3.47
2019-06-07T15:28:39.227Z,3.27
2019-06-07T15:30:50.073Z,3.35
2019-06-07T15:33:00.888Z,3.37
2019-06-07T15:35:11.933Z,3.47
2019-06-07T15:37:22.762Z,3.30
2019-06-07T15:39:34.667Z,3.35
2019-06-07T15:41:45.533Z,3.17
2019-06-07T15:43:56.364Z,3.05
2019-06-07T15:46:07.216Z,3.30
2019-06-07T15:48:18.159Z,3.12
2019-06-07T15:50:30.466Z,3.53
2019-06-07T15:52:43.350Z,3.53
2019-06-07T15:54:54.169Z,3.13
2019-06-07T15:57:05.128Z,3.30
2019-06-07T15:59:15.948Z,3.40
2019-06-07T16:01:26.788Z,3.40
2019-06-07T16:03:37.996Z,3.20
2019-06-07T16:05:48.970Z,3.40
2019-06-07T16:07:59.813Z,3.35
2019-06-07T16:10:10.989Z,3.30
2019-06-07T16:12:21.840Z,3.23
2019-06-07T16:14:33.155Z,3.35
2019-06-07T16:16:44.093Z,3.45
2019-06-07T16:18:54.955Z,3.33
2019-06-07T16:21:05.886Z,3.47
2019-06-07T16:23:16.743Z,3.40
2019-06-07T16:25:27.613Z,3.22
2019-06-07T16:27:38.719Z,3.52
2019-06-07T16:29:49.636Z,3.12
2019-06-07T16:32:00.477Z,3.70
2019-06-07T16:34:11.367Z,3.72
2019-06-07T16:36:22.180Z,3.70
2019-06-07T16:38:33.016Z,4.47
2019-06-07T16:40:44.620Z,4.30
2019-06-07T16:42:55.652Z,3.50
2019-06-07T16:45:07.792Z,3.23
2019-06-07T16:47:18.615Z,3.17
2019-06-07T16:49:29.483Z,3.10
2019-06-07T16:51:41.308Z,3.80
2019-06-07T16:53:52.359Z,3.62
2019-06-07T16:56:04.201Z,3.62
2019-06-07T16:58:15.079Z,3.80
2019-06-07T17:00:26.051Z,4.35
2019-06-07T17:02:38.087Z,4.40
2019-06-07T17:04:49.162Z,5.53
2019-06-07T17:06:59.978Z,6.07
2019-06-07T17:09:10.924Z,6.00
2019-06-07T17:11:21.973Z,8.00
2019-06-07T17:13:34.060Z,8.57
2019-06-07T17:15:45.089Z,5.93
2019-06-07T17:17:55.879Z,6.00
2019-06-07T17:20:07.959Z,5.70
2019-06-07T17:22:18.829Z,6.27
2019-06-07T17:24:29.729Z,5.67
2019-06-07T17:26:41.623Z,4.33
2019-06-07T17:28:52.756Z,3.37
2019-06-07T17:31:03.575Z,3.90
2019-06-07T17:33:16.422Z,3.60
2019-06-07T17:35:27.292Z,4.00
2019-06-07T17:37:38.205Z,3.27
2019-06-07T17:39:49.175Z,3.40
2019-06-07T17:42:02.435Z,2.93
2019-06-07T17:44:12.811Z,2.80
2019-06-07T17:46:23.747Z,2.33
2019-06-07T17:48:34.591Z,2.33
2019-06-07T17:50:45.903Z,2.47
2019-06-07T17:52:56.776Z,2.07
2019-06-07T17:55:07.946Z,2.10
2019-06-07T17:57:18.901Z,1.80
2019-06-07T17:59:29.739Z,2.33
2019-06-07T18:01:41.733Z,2.00
2019-06-07T18:03:53.436Z,2.07
2019-06-07T18:06:04.424Z,1.57
2019-06-07T18:08:16.088Z,2.00
2019-06-07T18:10:35.983Z,1.37
2019-06-07T18:12:48.058Z,1.23
2019-06-07T18:14:58.969Z,1.30
2019-06-07T18:17:09.801Z,1.07
2019-06-07T18:19:20.860Z,1.30
2019-06-07T18:21:31.771Z,1.20
2019-06-07T18:23:42.631Z,1.57
2019-06-07T18:25:54.774Z,1.00
2019-06-07T18:28:06.111Z,0.93
2019-06-07T18:30:17.461Z,1.20
2019-06-07T18:32:28.320Z,1.17
2019-06-07T18:34:39.238Z,0.70
2019-06-07T18:36:51.046Z,1.07
2019-06-07T18:39:05.893Z,0.80
2019-06-07T18:41:16.726Z,0.80
2019-06-07T18:43:27.706Z,1.00
2019-06-07T18:45:38.544Z,0.77
2019-06-07T18:47:49.513Z,0.70
2019-06-07T18:50:00.351Z,0.67
2019-06-07T18:52:13.106Z,0.80
2019-06-07T18:54:24.066Z,0.70
2019-06-07T18:56:34.936Z,0.70
2019-06-07T18:58:47.015Z,0.77
2019-06-07T19:00:58.337Z,0.70
2019-06-07T19:03:09.312Z,0.57
2019-06-07T19:05:20.559Z,0.53
2019-06-07T19:07:31.415Z,0.53
2019-06-07T19:09:42.284Z,0.70
2019-06-07T19:11:53.213Z,0.83
2019-06-07T19:14:04.196Z,0.73
2019-06-07T19:16:15.029Z,0.57
2019-06-07T19:18:25.999Z,0.60
2019-06-07T19:20:36.863Z,0.60
2019-06-07T19:22:47.738Z,0.83
2019-06-07T19:24:58.699Z,0.57
2019-06-07T19:27:09.543Z,0.40
2019-06-07T19:29:20.411Z,0.50
2019-06-07T19:31:31.264Z,0.60
2019-06-07T19:33:49.112Z,0.50
2019-06-07T19:35:55.521Z,0.97
2019-06-07T19:38:06.446Z,0.70
2019-06-07T19:40:17.574Z,0.70
2019-06-07T19:42:28.435Z,0.73
2019-06-07T19:44:52.153Z,0.40
2019-06-07T19:46:52.261Z,0.40
2019-06-07T19:49:03.174Z,0.93
2019-06-07T19:51:13.965Z,0.60
2019-06-07T19:53:24.896Z,0.60
2019-06-07T19:55:35.827Z,0.60
2019-06-07T19:57:49.979Z,0.60
2019-06-07T19:59:59.649Z,0.50
2019-06-07T20:02:10.677Z,0.40
2019-06-07T20:04:21.749Z,0.50
2019-06-07T20:06:32.583Z,0.50
2019-06-07T20:08:43.560Z,1.00
2019-06-07T20:10:54.493Z,0.70
2019-06-07T20:13:05.376Z,0.70
2019-06-07T20:15:29.125Z,0.43
2019-06-07T20:17:30.072Z,0.40
2019-06-07T20:19:40.945Z,0.70
2019-06-07T20:21:51.886Z,0.50
2019-06-07T20:24:24.090Z,0.60
2019-06-07T20:26:15.868Z,0.80
2019-06-07T20:28:26.867Z,0.53
2019-06-07T20:30:37.716Z,0.73
2019-06-07T20:32:48.528Z,0.60
2019-06-07T20:34:59.683Z,0.67
2019-06-07T20:37:10.638Z,0.60
2019-06-07T20:39:21.470Z,0.50
2019-06-07T20:41:32.323Z,0.50
2019-06-07T20:43:43.161Z,0.50
2019-06-07T20:45:54.030Z,0.83
2019-06-07T20:48:06.193Z,0.53
2019-06-07T20:50:17.397Z,0.50
2019-06-07T20:52:28.236Z,0.70
2019-06-07T20:54:39.073Z,0.47
2019-06-07T20:56:50.175Z,0.70
2019-06-07T20:59:01.026Z,0.90
2019-06-07T21:01:11.875Z,0.80
2019-06-07T21:03:23.646Z,0.57
2019-06-07T21:05:34.510Z,0.50
2019-06-07T21:07:45.345Z,0.50
2019-06-07T21:09:56.169Z,0.70
2019-06-07T21:12:07.951Z,0.70
2019-06-07T21:14:19.062Z,0.60
2019-06-07T21:16:29.897Z,1.07
2019-06-07T21:18:40.760Z,0.70
2019-06-07T21:20:51.646Z,0.60
2019-06-07T21:23:02.838Z,0.70
2019-06-07T21:25:13.878Z,0.60
2019-06-07T21:27:24.776Z,0.50
2019-06-07T21:29:35.664Z,0.50
2019-06-07T21:31:46.610Z,0.70
2019-06-07T21:33:57.534Z,0.57
2019-06-07T21:36:09.698Z,0.70
2019-06-07T21:38:20.759Z,0.50
2019-06-07T21:40:31.570Z,0.60
2019-06-07T21:42:42.459Z,0.70
2019-06-07T21:44:53.278Z,0.70
2019-06-07T21:47:04.331Z,0.60
2019-06-07T21:49:15.272Z,0.70
2019-06-07T21:51:26.131Z,0.80
2019-06-07T21:53:37.106Z,0.60
2019-06-07T21:55:48.046Z,0.90
2019-06-07T21:57:58.982Z,0.63
2019-06-07T22:00:14.346Z,1.20
2019-06-07T22:02:25.285Z,0.60
2019-06-07T22:04:36.246Z,0.70
2019-06-07T22:06:47.065Z,0.60
2019-06-07T22:08:57.918Z,0.60
2019-06-07T22:11:10.119Z,0.77
2019-06-07T22:13:21.433Z,0.60
2019-06-07T22:15:36.740Z,0.50
2019-06-07T22:17:45.069Z,0.70
2019-06-07T22:19:55.883Z,0.77
2019-06-07T22:22:07.604Z,1.00
2019-06-07T22:24:19.758Z,0.70
2019-06-07T22:26:30.613Z,0.70
2019-06-07T22:28:41.589Z,0.80
2019-06-07T22:30:52.441Z,1.13
2019-06-07T22:33:03.299Z,0.67
2019-06-07T22:35:15.015Z,0.90
2019-06-07T22:37:25.916Z,0.90
2019-06-07T22:39:36.760Z,0.83
2019-06-07T22:41:47.584Z,0.63
2019-06-07T22:43:58.502Z,0.70
2019-06-07T22:46:09.354Z,0.80
2019-06-07T22:48:20.215Z,0.90
2019-06-07T22:50:31.067Z,0.60
2019-06-07T22:52:41.899Z,1.10
2019-06-07T22:54:52.728Z,0.80
2019-06-07T22:57:16.509Z,1.00
2019-06-07T22:59:27.481Z,0.70
2019-06-07T23:01:38.309Z,0.90
2019-06-07T23:03:49.166Z,1.00
2019-06-07T23:05:59.991Z,1.00
2019-06-07T23:08:11.034Z,0.70
2019-06-07T23:10:21.982Z,1.00
2019-06-07T23:12:32.860Z,0.80
2019-06-07T23:14:43.752Z,0.60
2019-06-07T23:16:56.116Z,1.00
2019-06-07T23:19:07.215Z,0.83
2019-06-07T23:21:18.270Z,0.70
2019-06-07T23:23:29.040Z,1.00
2019-06-07T23:25:39.883Z,0.90
2019-06-07T23:27:50.756Z,0.80
2019-06-07T23:30:08.661Z,0.90
2019-06-07T23:32:20.167Z,0.90
2019-06-07T23:34:32.121Z,0.70
2019-06-07T23:36:42.969Z,1.07
2019-06-07T23:38:53.785Z,0.73
2019-06-07T23:41:04.627Z,0.73
2019-06-07T23:43:15.445Z,2.50
2019-06-07T23:45:26.428Z,2.30
2019-06-07T23:47:37.245Z,1.50
2019-06-07T23:49:48.072Z,1.00
2019-06-07T23:51:58.913Z,0.70
2019-06-07T23:54:09.748Z,0.67
2019-06-07T23:56:20.590Z,0.80
2019-06-07T23:58:31.478Z,0.80
